sensor_id;sensor_type;location;lat;lon;timestamp;P1;durP1;ratioP1;P2;durP2;ratioP2
81996;SDS011;71500;50.806;8.774;2024-02-26T00:01:49;4.80;;;3.50;;
81996;SDS011;71500;50.806;8.774;2024-02-26T00:04:21;4.80;;;3.30;;
81996;SDS011;71500;50.806;8.774;2024-02-26T00:06:52;5.30;;;3.70;;
81996;SDS011;71500;50.806;8.774;2024-02-26T00:09:25;4.80;;;3.70;;
81996;SDS011;71500;50.806;8.774;2024-02-26T00:11:56;4.40;;;3.00;;
81996;SDS011;71500;50.806;8.774;2024-02-26T00:14:28;4.80;;;3.50;;
81996;SDS011;71500;50.806;8.774;2024-02-26T00:16:59;4.10;;;3.40;;
81996;SDS011;71500;50.806;8.774;2024-02-26T00:19:31;3.90;;;2.80;;
81996;SDS011;71500;50.806;8.774;2024-02-26T00:22:04;4.20;;;3.20;;
81996;SDS011;71500;50.806;8.774;2024-02-26T00:24:36;3.70;;;2.60;;
81996;SDS011;71500;50.806;8.774;2024-02-26T00:27:09;4.60;;;2.70;;
81996;SDS011;71500;50.806;8.774;2024-02-26T00:29:40;3.80;;;3.20;;
81996;SDS011;71500;50.806;8.774;2024-02-26T00:32:12;5.10;;;3.60;;
81996;SDS011;71500;50.806;8.774;2024-02-26T00:34:43;4.40;;;3.00;;
81996;SDS011;71500;50.806;8.774;2024-02-26T00:37:15;3.30;;;2.60;;
81996;SDS011;71500;50.806;8.774;2024-02-26T00:39:46;3.70;;;2.60;;
81996;SDS011;71500;50.806;8.774;2024-02-26T00:42:18;2.80;;;2.50;;
81996;SDS011;71500;50.806;8.774;2024-02-26T00:44:49;3.80;;;2.70;;
81996;SDS011;71500;50.806;8.774;2024-02-26T00:47:21;3.50;;;2.70;;
81996;SDS011;71500;50.806;8.774;2024-02-26T00:49:53;4.20;;;2.60;;
81996;SDS011;71500;50.806;8.774;2024-02-26T00:52:24;5.20;;;3.40;;
81996;SDS011;71500;50.806;8.774;2024-02-26T00:54:56;4.30;;;2.60;;
81996;SDS011;71500;50.806;8.774;2024-02-26T00:57:27;4.00;;;2.70;;
81996;SDS011;71500;50.806;8.774;2024-02-26T00:59:58;4.10;;;2.80;;
81996;SDS011;71500;50.806;8.774;2024-02-26T01:02:30;4.00;;;2.80;;
81996;SDS011;71500;50.806;8.774;2024-02-26T01:05:02;4.30;;;2.80;;
81996;SDS011;71500;50.806;8.774;2024-02-26T01:07:34;4.90;;;3.00;;
81996;SDS011;71500;50.806;8.774;2024-02-26T01:10:07;4.10;;;3.70;;
81996;SDS011;71500;50.806;8.774;2024-02-26T01:12:39;3.20;;;2.60;;
81996;SDS011;71500;50.806;8.774;2024-02-26T01:15:10;3.50;;;2.50;;
81996;SDS011;71500;50.806;8.774;2024-02-26T01:17:42;3.80;;;2.90;;
81996;SDS011;71500;50.806;8.774;2024-02-26T01:20:14;3.10;;;2.80;;
81996;SDS011;71500;50.806;8.774;2024-02-26T01:22:45;3.80;;;2.90;;
81996;SDS011;71500;50.806;8.774;2024-02-26T01:25:17;4.80;;;2.80;;
81996;SDS011;71500;50.806;8.774;2024-02-26T01:27:48;4.00;;;3.00;;
81996;SDS011;71500;50.806;8.774;2024-02-26T01:30:19;3.80;;;3.00;;
81996;SDS011;71500;50.806;8.774;2024-02-26T01:32:51;3.80;;;2.90;;
81996;SDS011;71500;50.806;8.774;2024-02-26T01:35:22;3.70;;;2.80;;
81996;SDS011;71500;50.806;8.774;2024-02-26T01:37:55;3.70;;;2.90;;
81996;SDS011;71500;50.806;8.774;2024-02-26T01:40:27;3.30;;;2.60;;
81996;SDS011;71500;50.806;8.774;2024-02-26T01:43:00;3.00;;;2.60;;
81996;SDS011;71500;50.806;8.774;2024-02-26T01:45:31;3.90;;;2.70;;
81996;SDS011;71500;50.806;8.774;2024-02-26T01:48:03;3.30;;;2.50;;
81996;SDS011;71500;50.806;8.774;2024-02-26T01:50:36;3.90;;;2.60;;
81996;SDS011;71500;50.806;8.774;2024-02-26T01:53:08;2.90;;;2.30;;
81996;SDS011;71500;50.806;8.774;2024-02-26T01:55:40;3.00;;;2.20;;
81996;SDS011;71500;50.806;8.774;2024-02-26T01:58:12;3.10;;;2.40;;
81996;SDS011;71500;50.806;8.774;2024-02-26T02:00:45;3.10;;;2.50;;
81996;SDS011;71500;50.806;8.774;2024-02-26T02:03:17;4.00;;;2.60;;
81996;SDS011;71500;50.806;8.774;2024-02-26T02:05:48;5.10;;;2.90;;
81996;SDS011;71500;50.806;8.774;2024-02-26T02:08:20;3.40;;;2.50;;
81996;SDS011;71500;50.806;8.774;2024-02-26T02:10:53;3.70;;;2.60;;
81996;SDS011;71500;50.806;8.774;2024-02-26T02:13:24;4.20;;;2.80;;
81996;SDS011;71500;50.806;8.774;2024-02-26T02:15:56;4.50;;;2.50;;
81996;SDS011;71500;50.806;8.774;2024-02-26T02:18:27;4.30;;;2.70;;
81996;SDS011;71500;50.806;8.774;2024-02-26T02:21:01;4.40;;;3.10;;
81996;SDS011;71500;50.806;8.774;2024-02-26T02:23:33;4.60;;;2.90;;
81996;SDS011;71500;50.806;8.774;2024-02-26T02:26:04;3.40;;;2.50;;
81996;SDS011;71500;50.806;8.774;2024-02-26T02:28:36;3.90;;;3.00;;
81996;SDS011;71500;50.806;8.774;2024-02-26T02:31:07;3.70;;;2.90;;
81996;SDS011;71500;50.806;8.774;2024-02-26T02:33:38;3.60;;;2.50;;
81996;SDS011;71500;50.806;8.774;2024-02-26T02:36:10;3.80;;;2.90;;
81996;SDS011;71500;50.806;8.774;2024-02-26T02:38:49;4.00;;;2.80;;
81996;SDS011;71500;50.806;8.774;2024-02-26T02:43:51;3.40;;;2.60;;
81996;SDS011;71500;50.806;8.774;2024-02-26T02:46:22;4.80;;;2.90;;
81996;SDS011;71500;50.806;8.774;2024-02-26T02:48:53;3.10;;;2.20;;
81996;SDS011;71500;50.806;8.774;2024-02-26T02:51:25;3.50;;;2.40;;
81996;SDS011;71500;50.806;8.774;2024-02-26T02:53:56;3.00;;;2.50;;
81996;SDS011;71500;50.806;8.774;2024-02-26T02:56:27;3.20;;;2.30;;
81996;SDS011;71500;50.806;8.774;2024-02-26T02:58:59;3.30;;;2.40;;
81996;SDS011;71500;50.806;8.774;2024-02-26T03:01:30;3.60;;;2.40;;
81996;SDS011;71500;50.806;8.774;2024-02-26T03:04:02;4.50;;;2.30;;
81996;SDS011;71500;50.806;8.774;2024-02-26T03:06:34;2.90;;;2.30;;
81996;SDS011;71500;50.806;8.774;2024-02-26T03:09:06;5.90;;;2.50;;
81996;SDS011;71500;50.806;8.774;2024-02-26T03:11:38;3.30;;;2.60;;
81996;SDS011;71500;50.806;8.774;2024-02-26T03:14:10;3.70;;;2.40;;
81996;SDS011;71500;50.806;8.774;2024-02-26T03:16:41;3.40;;;2.30;;
81996;SDS011;71500;50.806;8.774;2024-02-26T03:19:15;3.30;;;2.50;;
81996;SDS011;71500;50.806;8.774;2024-02-26T03:21:46;3.10;;;2.50;;
81996;SDS011;71500;50.806;8.774;2024-02-26T03:24:18;4.00;;;2.20;;
81996;SDS011;71500;50.806;8.774;2024-02-26T03:26:49;3.40;;;2.80;;
81996;SDS011;71500;50.806;8.774;2024-02-26T03:29:21;2.30;;;1.90;;
81996;SDS011;71500;50.806;8.774;2024-02-26T03:31:52;3.20;;;2.30;;
81996;SDS011;71500;50.806;8.774;2024-02-26T03:34:23;3.50;;;2.30;;
81996;SDS011;71500;50.806;8.774;2024-02-26T03:36:55;3.50;;;2.40;;
81996;SDS011;71500;50.806;8.774;2024-02-26T03:39:27;4.10;;;2.70;;
81996;SDS011;71500;50.806;8.774;2024-02-26T03:41:59;3.70;;;2.30;;
81996;SDS011;71500;50.806;8.774;2024-02-26T03:44:31;3.60;;;2.20;;
81996;SDS011;71500;50.806;8.774;2024-02-26T03:47:02;2.40;;;1.90;;
81996;SDS011;71500;50.806;8.774;2024-02-26T03:49:34;3.00;;;2.00;;
81996;SDS011;71500;50.806;8.774;2024-02-26T03:52:06;3.00;;;2.50;;
81996;SDS011;71500;50.806;8.774;2024-02-26T03:54:37;2.60;;;1.90;;
81996;SDS011;71500;50.806;8.774;2024-02-26T03:57:08;3.90;;;2.10;;
81996;SDS011;71500;50.806;8.774;2024-02-26T03:59:39;2.60;;;1.90;;
81996;SDS011;71500;50.806;8.774;2024-02-26T04:02:11;3.20;;;2.00;;
81996;SDS011;71500;50.806;8.774;2024-02-26T04:04:42;3.30;;;2.10;;
81996;SDS011;71500;50.806;8.774;2024-02-26T04:07:14;4.20;;;2.20;;
81996;SDS011;71500;50.806;8.774;2024-02-26T04:09:45;2.90;;;2.30;;
81996;SDS011;71500;50.806;8.774;2024-02-26T04:12:16;2.70;;;2.00;;
81996;SDS011;71500;50.806;8.774;2024-02-26T04:14:48;3.00;;;2.00;;
81996;SDS011;71500;50.806;8.774;2024-02-26T04:17:19;3.10;;;2.20;;
81996;SDS011;71500;50.806;8.774;2024-02-26T04:19:50;3.20;;;2.10;;
81996;SDS011;71500;50.806;8.774;2024-02-26T04:22:22;3.50;;;2.40;;
81996;SDS011;71500;50.806;8.774;2024-02-26T04:24:53;3.50;;;2.10;;
81996;SDS011;71500;50.806;8.774;2024-02-26T04:27:24;3.70;;;2.40;;
81996;SDS011;71500;50.806;8.774;2024-02-26T04:29:56;3.80;;;2.50;;
81996;SDS011;71500;50.806;8.774;2024-02-26T04:32:27;2.70;;;2.10;;
81996;SDS011;71500;50.806;8.774;2024-02-26T04:34:59;3.50;;;2.20;;
81996;SDS011;71500;50.806;8.774;2024-02-26T04:37:32;3.40;;;2.30;;
81996;SDS011;71500;50.806;8.774;2024-02-26T04:40:05;2.70;;;1.80;;
81996;SDS011;71500;50.806;8.774;2024-02-26T04:42:37;3.70;;;2.60;;
81996;SDS011;71500;50.806;8.774;2024-02-26T04:45:09;3.50;;;2.20;;
81996;SDS011;71500;50.806;8.774;2024-02-26T04:47:40;3.30;;;2.50;;
81996;SDS011;71500;50.806;8.774;2024-02-26T04:50:12;3.30;;;2.20;;
81996;SDS011;71500;50.806;8.774;2024-02-26T04:52:43;3.30;;;2.10;;
81996;SDS011;71500;50.806;8.774;2024-02-26T04:55:15;2.70;;;2.00;;
81996;SDS011;71500;50.806;8.774;2024-02-26T04:57:46;2.80;;;2.10;;
81996;SDS011;71500;50.806;8.774;2024-02-26T05:00:18;2.70;;;2.10;;
81996;SDS011;71500;50.806;8.774;2024-02-26T05:02:49;2.50;;;2.00;;
81996;SDS011;71500;50.806;8.774;2024-02-26T05:05:21;3.10;;;2.10;;
81996;SDS011;71500;50.806;8.774;2024-02-26T05:07:52;2.90;;;1.90;;
81996;SDS011;71500;50.806;8.774;2024-02-26T05:10:23;2.70;;;1.80;;
81996;SDS011;71500;50.806;8.774;2024-02-26T05:12:55;2.70;;;1.80;;
81996;SDS011;71500;50.806;8.774;2024-02-26T05:15:27;3.30;;;2.10;;
81996;SDS011;71500;50.806;8.774;2024-02-26T05:17:58;2.60;;;1.70;;
81996;SDS011;71500;50.806;8.774;2024-02-26T05:20:30;4.40;;;3.00;;
81996;SDS011;71500;50.806;8.774;2024-02-26T05:23:04;2.80;;;2.10;;
81996;SDS011;71500;50.806;8.774;2024-02-26T05:25:35;3.70;;;2.20;;
81996;SDS011;71500;50.806;8.774;2024-02-26T05:28:07;3.80;;;2.20;;
81996;SDS011;71500;50.806;8.774;2024-02-26T05:30:38;2.90;;;2.50;;
81996;SDS011;71500;50.806;8.774;2024-02-26T05:33:09;2.70;;;2.20;;
81996;SDS011;71500;50.806;8.774;2024-02-26T05:35:47;2.90;;;1.90;;
81996;SDS011;71500;50.806;8.774;2024-02-26T05:38:18;4.00;;;2.20;;
81996;SDS011;71500;50.806;8.774;2024-02-26T05:40:50;3.50;;;1.90;;
81996;SDS011;71500;50.806;8.774;2024-02-26T05:43:21;2.70;;;1.90;;
81996;SDS011;71500;50.806;8.774;2024-02-26T05:45:52;3.20;;;2.00;;
81996;SDS011;71500;50.806;8.774;2024-02-26T05:48:24;3.40;;;2.20;;
81996;SDS011;71500;50.806;8.774;2024-02-26T05:50:55;3.60;;;2.40;;
81996;SDS011;71500;50.806;8.774;2024-02-26T05:53:27;3.50;;;2.20;;
81996;SDS011;71500;50.806;8.774;2024-02-26T05:55:59;3.40;;;2.20;;
81996;SDS011;71500;50.806;8.774;2024-02-26T05:58:30;3.60;;;2.00;;
81996;SDS011;71500;50.806;8.774;2024-02-26T06:01:02;2.80;;;2.30;;
81996;SDS011;71500;50.806;8.774;2024-02-26T06:03:34;3.40;;;2.90;;
81996;SDS011;71500;50.806;8.774;2024-02-26T06:06:06;3.40;;;2.40;;
81996;SDS011;71500;50.806;8.774;2024-02-26T06:08:37;3.80;;;2.50;;
81996;SDS011;71500;50.806;8.774;2024-02-26T06:11:09;3.10;;;2.50;;
81996;SDS011;71500;50.806;8.774;2024-02-26T06:13:40;3.50;;;2.20;;
81996;SDS011;71500;50.806;8.774;2024-02-26T06:16:12;4.30;;;2.60;;
81996;SDS011;71500;50.806;8.774;2024-02-26T06:18:43;3.40;;;2.30;;
81996;SDS011;71500;50.806;8.774;2024-02-26T06:21:14;3.30;;;2.40;;
81996;SDS011;71500;50.806;8.774;2024-02-26T06:23:46;3.30;;;2.20;;
81996;SDS011;71500;50.806;8.774;2024-02-26T06:26:18;3.70;;;2.20;;
81996;SDS011;71500;50.806;8.774;2024-02-26T06:28:49;2.60;;;2.10;;
81996;SDS011;71500;50.806;8.774;2024-02-26T06:31:21;2.60;;;2.00;;
81996;SDS011;71500;50.806;8.774;2024-02-26T06:33:52;3.60;;;2.30;;
81996;SDS011;71500;50.806;8.774;2024-02-26T06:36:24;2.90;;;2.20;;
81996;SDS011;71500;50.806;8.774;2024-02-26T06:38:56;3.10;;;2.60;;
81996;SDS011;71500;50.806;8.774;2024-02-26T06:41:27;3.50;;;2.40;;
81996;SDS011;71500;50.806;8.774;2024-02-26T06:43:59;3.40;;;2.70;;
81996;SDS011;71500;50.806;8.774;2024-02-26T06:46:31;5.20;;;2.80;;
81996;SDS011;71500;50.806;8.774;2024-02-26T06:49:02;3.10;;;2.60;;
81996;SDS011;71500;50.806;8.774;2024-02-26T06:51:33;3.30;;;2.30;;
81996;SDS011;71500;50.806;8.774;2024-02-26T06:54:05;3.50;;;2.50;;
81996;SDS011;71500;50.806;8.774;2024-02-26T06:56:38;4.00;;;2.50;;
81996;SDS011;71500;50.806;8.774;2024-02-26T06:59:10;3.40;;;2.30;;
81996;SDS011;71500;50.806;8.774;2024-02-26T07:01:42;3.20;;;2.20;;
81996;SDS011;71500;50.806;8.774;2024-02-26T07:04:13;3.20;;;2.50;;
81996;SDS011;71500;50.806;8.774;2024-02-26T07:06:45;3.20;;;2.30;;
81996;SDS011;71500;50.806;8.774;2024-02-26T07:09:16;3.60;;;2.10;;
81996;SDS011;71500;50.806;8.774;2024-02-26T07:11:48;3.00;;;2.20;;
81996;SDS011;71500;50.806;8.774;2024-02-26T07:14:20;3.90;;;3.00;;
81996;SDS011;71500;50.806;8.774;2024-02-26T07:16:51;3.30;;;2.50;;
81996;SDS011;71500;50.806;8.774;2024-02-26T07:19:22;3.50;;;2.80;;
81996;SDS011;71500;50.806;8.774;2024-02-26T07:21:54;4.20;;;2.50;;
81996;SDS011;71500;50.806;8.774;2024-02-26T07:24:25;3.50;;;2.30;;
81996;SDS011;71500;50.806;8.774;2024-02-26T07:26:57;4.50;;;2.50;;
81996;SDS011;71500;50.806;8.774;2024-02-26T07:29:29;3.70;;;2.60;;
81996;SDS011;71500;50.806;8.774;2024-02-26T07:32:00;3.70;;;2.40;;
81996;SDS011;71500;50.806;8.774;2024-02-26T07:34:32;3.90;;;2.90;;
81996;SDS011;71500;50.806;8.774;2024-02-26T07:37:07;4.80;;;2.60;;
81996;SDS011;71500;50.806;8.774;2024-02-26T07:39:38;2.90;;;2.10;;
81996;SDS011;71500;50.806;8.774;2024-02-26T07:42:10;3.00;;;2.10;;
81996;SDS011;71500;50.806;8.774;2024-02-26T07:44:41;3.30;;;2.50;;
81996;SDS011;71500;50.806;8.774;2024-02-26T07:47:13;3.40;;;2.30;;
81996;SDS011;71500;50.806;8.774;2024-02-26T07:49:44;3.20;;;2.60;;
81996;SDS011;71500;50.806;8.774;2024-02-26T07:52:16;3.70;;;2.30;;
81996;SDS011;71500;50.806;8.774;2024-02-26T07:54:47;3.70;;;2.70;;
81996;SDS011;71500;50.806;8.774;2024-02-26T07:57:18;3.70;;;2.30;;
81996;SDS011;71500;50.806;8.774;2024-02-26T07:59:50;3.50;;;2.50;;
81996;SDS011;71500;50.806;8.774;2024-02-26T08:02:21;3.60;;;2.30;;
81996;SDS011;71500;50.806;8.774;2024-02-26T08:04:53;3.30;;;2.10;;
81996;SDS011;71500;50.806;8.774;2024-02-26T08:07:25;3.70;;;2.50;;
81996;SDS011;71500;50.806;8.774;2024-02-26T08:09:57;4.40;;;2.80;;
81996;SDS011;71500;50.806;8.774;2024-02-26T08:12:28;3.90;;;2.90;;
81996;SDS011;71500;50.806;8.774;2024-02-26T08:15:00;3.30;;;2.40;;
81996;SDS011;71500;50.806;8.774;2024-02-26T08:17:31;4.10;;;2.60;;
81996;SDS011;71500;50.806;8.774;2024-02-26T08:22:35;3.00;;;2.30;;
81996;SDS011;71500;50.806;8.774;2024-02-26T08:25:08;3.90;;;2.30;;
81996;SDS011;71500;50.806;8.774;2024-02-26T08:27:41;3.30;;;2.50;;
81996;SDS011;71500;50.806;8.774;2024-02-26T08:30:13;3.70;;;2.30;;
81996;SDS011;71500;50.806;8.774;2024-02-26T08:32:47;3.30;;;2.30;;
81996;SDS011;71500;50.806;8.774;2024-02-26T08:35:20;3.00;;;2.10;;
81996;SDS011;71500;50.806;8.774;2024-02-26T08:37:52;4.20;;;2.30;;
81996;SDS011;71500;50.806;8.774;2024-02-26T08:40:23;3.10;;;2.10;;
81996;SDS011;71500;50.806;8.774;2024-02-26T08:42:54;3.90;;;2.50;;
81996;SDS011;71500;50.806;8.774;2024-02-26T08:45:26;3.70;;;2.20;;
81996;SDS011;71500;50.806;8.774;2024-02-26T08:47:59;3.60;;;2.70;;
81996;SDS011;71500;50.806;8.774;2024-02-26T08:50:31;3.40;;;2.50;;
81996;SDS011;71500;50.806;8.774;2024-02-26T08:53:02;3.40;;;2.30;;
81996;SDS011;71500;50.806;8.774;2024-02-26T08:55:35;5.00;;;2.70;;
81996;SDS011;71500;50.806;8.774;2024-02-26T08:58:06;3.70;;;2.80;;
81996;SDS011;71500;50.806;8.774;2024-02-26T09:00:38;3.30;;;2.70;;
81996;SDS011;71500;50.806;8.774;2024-02-26T09:03:09;3.80;;;2.70;;
81996;SDS011;71500;50.806;8.774;2024-02-26T09:05:41;3.70;;;2.20;;
81996;SDS011;71500;50.806;8.774;2024-02-26T09:08:13;4.20;;;2.60;;
81996;SDS011;71500;50.806;8.774;2024-02-26T09:10:44;3.60;;;2.60;;
81996;SDS011;71500;50.806;8.774;2024-02-26T09:13:16;4.20;;;2.70;;
81996;SDS011;71500;50.806;8.774;2024-02-26T09:15:47;4.10;;;2.60;;
81996;SDS011;71500;50.806;8.774;2024-02-26T09:18:19;4.30;;;2.90;;
81996;SDS011;71500;50.806;8.774;2024-02-26T09:20:50;4.00;;;2.30;;
81996;SDS011;71500;50.806;8.774;2024-02-26T09:23:21;4.30;;;2.60;;
81996;SDS011;71500;50.806;8.774;2024-02-26T09:25:53;4.60;;;2.50;;
81996;SDS011;71500;50.806;8.774;2024-02-26T09:28:24;5.40;;;3.30;;
81996;SDS011;71500;50.806;8.774;2024-02-26T09:30:56;5.40;;;3.50;;
81996;SDS011;71500;50.806;8.774;2024-02-26T09:33:27;4.50;;;2.70;;
81996;SDS011;71500;50.806;8.774;2024-02-26T09:35:59;6.90;;;4.10;;
81996;SDS011;71500;50.806;8.774;2024-02-26T09:38:31;4.70;;;3.00;;
81996;SDS011;71500;50.806;8.774;2024-02-26T09:41:20;3.40;;;2.30;;
81996;SDS011;71500;50.806;8.774;2024-02-26T09:43:51;5.50;;;3.00;;
81996;SDS011;71500;50.806;8.774;2024-02-26T09:46:28;4.30;;;2.70;;
81996;SDS011;71500;50.806;8.774;2024-02-26T09:49:00;4.00;;;2.80;;
81996;SDS011;71500;50.806;8.774;2024-02-26T09:51:31;3.70;;;2.70;;
81996;SDS011;71500;50.806;8.774;2024-02-26T09:54:03;4.60;;;2.90;;
81996;SDS011;71500;50.806;8.774;2024-02-26T09:56:37;3.80;;;2.60;;
81996;SDS011;71500;50.806;8.774;2024-02-26T09:59:24;3.40;;;2.20;;
81996;SDS011;71500;50.806;8.774;2024-02-26T10:01:55;4.00;;;2.20;;
81996;SDS011;71500;50.806;8.774;2024-02-26T10:04:28;5.30;;;3.30;;
81996;SDS011;71500;50.806;8.774;2024-02-26T10:07:01;3.50;;;2.40;;
81996;SDS011;71500;50.806;8.774;2024-02-26T10:09:34;3.30;;;2.40;;
81996;SDS011;71500;50.806;8.774;2024-02-26T10:12:06;3.70;;;2.70;;
81996;SDS011;71500;50.806;8.774;2024-02-26T10:14:39;4.40;;;3.40;;
81996;SDS011;71500;50.806;8.774;2024-02-26T10:17:11;6.00;;;2.90;;
81996;SDS011;71500;50.806;8.774;2024-02-26T10:19:42;3.50;;;2.40;;
81996;SDS011;71500;50.806;8.774;2024-02-26T10:22:14;4.20;;;2.60;;
81996;SDS011;71500;50.806;8.774;2024-02-26T10:24:46;4.00;;;3.20;;
81996;SDS011;71500;50.806;8.774;2024-02-26T10:27:18;4.70;;;2.80;;
81996;SDS011;71500;50.806;8.774;2024-02-26T10:29:50;4.30;;;3.20;;
81996;SDS011;71500;50.806;8.774;2024-02-26T10:32:22;4.70;;;2.80;;
81996;SDS011;71500;50.806;8.774;2024-02-26T10:34:56;4.50;;;3.30;;
81996;SDS011;71500;50.806;8.774;2024-02-26T10:37:28;5.30;;;3.00;;
81996;SDS011;71500;50.806;8.774;2024-02-26T10:39:59;4.90;;;3.50;;
81996;SDS011;71500;50.806;8.774;2024-02-26T10:42:31;4.80;;;3.00;;
81996;SDS011;71500;50.806;8.774;2024-02-26T10:45:03;5.00;;;3.70;;
81996;SDS011;71500;50.806;8.774;2024-02-26T10:47:37;4.50;;;3.50;;
81996;SDS011;71500;50.806;8.774;2024-02-26T10:50:10;4.80;;;3.20;;
81996;SDS011;71500;50.806;8.774;2024-02-26T10:52:45;5.10;;;4.00;;
81996;SDS011;71500;50.806;8.774;2024-02-26T10:55:17;5.50;;;3.50;;
81996;SDS011;71500;50.806;8.774;2024-02-26T10:57:52;4.40;;;3.40;;
81996;SDS011;71500;50.806;8.774;2024-02-26T11:00:24;6.10;;;3.50;;
81996;SDS011;71500;50.806;8.774;2024-02-26T11:02:57;5.60;;;3.40;;
81996;SDS011;71500;50.806;8.774;2024-02-26T11:05:32;4.80;;;3.30;;
81996;SDS011;71500;50.806;8.774;2024-02-26T11:08:06;5.10;;;3.60;;
81996;SDS011;71500;50.806;8.774;2024-02-26T11:10:37;5.70;;;3.80;;
81996;SDS011;71500;50.806;8.774;2024-02-26T11:13:10;5.00;;;3.60;;
81996;SDS011;71500;50.806;8.774;2024-02-26T11:15:45;5.60;;;4.00;;
81996;SDS011;71500;50.806;8.774;2024-02-26T11:18:17;5.50;;;3.60;;
81996;SDS011;71500;50.806;8.774;2024-02-26T11:20:52;4.80;;;3.80;;
81996;SDS011;71500;50.806;8.774;2024-02-26T11:23:26;5.60;;;3.80;;
81996;SDS011;71500;50.806;8.774;2024-02-26T11:25:58;6.20;;;4.10;;
81996;SDS011;71500;50.806;8.774;2024-02-26T11:28:30;5.40;;;3.80;;
81996;SDS011;71500;50.806;8.774;2024-02-26T11:31:04;5.80;;;3.40;;
81996;SDS011;71500;50.806;8.774;2024-02-26T11:33:36;6.00;;;4.10;;
81996;SDS011;71500;50.806;8.774;2024-02-26T11:36:09;4.90;;;3.40;;
81996;SDS011;71500;50.806;8.774;2024-02-26T11:38:42;4.80;;;3.50;;
81996;SDS011;71500;50.806;8.774;2024-02-26T11:41:16;4.90;;;3.30;;
81996;SDS011;71500;50.806;8.774;2024-02-26T11:43:51;5.70;;;3.80;;
81996;SDS011;71500;50.806;8.774;2024-02-26T11:46:29;5.10;;;3.50;;
81996;SDS011;71500;50.806;8.774;2024-02-26T11:49:02;6.00;;;3.70;;
81996;SDS011;71500;50.806;8.774;2024-02-26T11:51:55;4.70;;;3.40;;
81996;SDS011;71500;50.806;8.774;2024-02-26T11:54:43;5.80;;;4.50;;
81996;SDS011;71500;50.806;8.774;2024-02-26T11:57:25;6.60;;;4.30;;
81996;SDS011;71500;50.806;8.774;2024-02-26T12:00:10;6.10;;;4.00;;
81996;SDS011;71500;50.806;8.774;2024-02-26T12:02:45;5.80;;;3.60;;
81996;SDS011;71500;50.806;8.774;2024-02-26T12:05:21;4.90;;;3.10;;
81996;SDS011;71500;50.806;8.774;2024-02-26T12:07:54;5.80;;;3.80;;
81996;SDS011;71500;50.806;8.774;2024-02-26T12:10:31;6.80;;;4.00;;
81996;SDS011;71500;50.806;8.774;2024-02-26T12:13:07;6.30;;;4.10;;
81996;SDS011;71500;50.806;8.774;2024-02-26T12:15:55;6.60;;;4.20;;
81996;SDS011;71500;50.806;8.774;2024-02-26T12:18:28;5.70;;;4.00;;
81996;SDS011;71500;50.806;8.774;2024-02-26T12:21:01;4.70;;;3.70;;
81996;SDS011;71500;50.806;8.774;2024-02-26T12:26:11;5.60;;;4.00;;
81996;SDS011;71500;50.806;8.774;2024-02-26T12:31:16;5.60;;;3.80;;
81996;SDS011;71500;50.806;8.774;2024-02-26T12:33:47;5.20;;;3.60;;
81996;SDS011;71500;50.806;8.774;2024-02-26T12:36:19;5.70;;;3.70;;
81996;SDS011;71500;50.806;8.774;2024-02-26T12:38:52;5.40;;;3.60;;
81996;SDS011;71500;50.806;8.774;2024-02-26T12:41:24;4.70;;;3.70;;
81996;SDS011;71500;50.806;8.774;2024-02-26T12:43:56;5.50;;;3.80;;
81996;SDS011;71500;50.806;8.774;2024-02-26T12:46:28;5.60;;;3.50;;
81996;SDS011;71500;50.806;8.774;2024-02-26T12:49:00;4.50;;;3.60;;
81996;SDS011;71500;50.806;8.774;2024-02-26T12:51:32;5.30;;;3.70;;
81996;SDS011;71500;50.806;8.774;2024-02-26T12:54:04;5.10;;;3.40;;
81996;SDS011;71500;50.806;8.774;2024-02-26T12:56:37;5.50;;;3.70;;
81996;SDS011;71500;50.806;8.774;2024-02-26T12:59:08;5.80;;;3.90;;
81996;SDS011;71500;50.806;8.774;2024-02-26T13:01:40;6.10;;;3.80;;
81996;SDS011;71500;50.806;8.774;2024-02-26T13:04:12;5.90;;;3.70;;
81996;SDS011;71500;50.806;8.774;2024-02-26T13:06:45;5.70;;;3.40;;
81996;SDS011;71500;50.806;8.774;2024-02-26T13:09:17;5.00;;;3.90;;
81996;SDS011;71500;50.806;8.774;2024-02-26T13:11:54;5.30;;;3.30;;
81996;SDS011;71500;50.806;8.774;2024-02-26T13:14:25;4.70;;;3.20;;
81996;SDS011;71500;50.806;8.774;2024-02-26T13:16:59;5.60;;;3.40;;
81996;SDS011;71500;50.806;8.774;2024-02-26T13:19:32;4.20;;;3.50;;
81996;SDS011;71500;50.806;8.774;2024-02-26T13:22:05;5.20;;;3.60;;
81996;SDS011;71500;50.806;8.774;2024-02-26T13:27:07;5.60;;;2.90;;
81996;SDS011;71500;50.806;8.774;2024-02-26T13:29:38;8.20;;;3.80;;
81996;SDS011;71500;50.806;8.774;2024-02-26T13:32:10;6.50;;;3.80;;
81996;SDS011;71500;50.806;8.774;2024-02-26T13:34:41;5.40;;;3.70;;
81996;SDS011;71500;50.806;8.774;2024-02-26T13:37:13;6.50;;;3.70;;
81996;SDS011;71500;50.806;8.774;2024-02-26T13:39:45;5.00;;;3.40;;
81996;SDS011;71500;50.806;8.774;2024-02-26T13:42:16;5.90;;;3.50;;
81996;SDS011;71500;50.806;8.774;2024-02-26T13:44:48;5.90;;;4.60;;
81996;SDS011;71500;50.806;8.774;2024-02-26T13:47:20;6.80;;;5.20;;
81996;SDS011;71500;50.806;8.774;2024-02-26T13:49:51;6.50;;;5.50;;
81996;SDS011;71500;50.806;8.774;2024-02-26T13:52:23;6.20;;;4.60;;
81996;SDS011;71500;50.806;8.774;2024-02-26T13:54:55;6.20;;;5.30;;
81996;SDS011;71500;50.806;8.774;2024-02-26T13:57:27;6.90;;;3.80;;
81996;SDS011;71500;50.806;8.774;2024-02-26T13:59:59;5.30;;;4.10;;
81996;SDS011;71500;50.806;8.774;2024-02-26T14:02:32;5.20;;;3.50;;
81996;SDS011;71500;50.806;8.774;2024-02-26T14:07:36;4.70;;;3.40;;
81996;SDS011;71500;50.806;8.774;2024-02-26T14:10:09;4.60;;;3.10;;
81996;SDS011;71500;50.806;8.774;2024-02-26T14:12:42;4.90;;;3.10;;
81996;SDS011;71500;50.806;8.774;2024-02-26T14:15:14;5.20;;;3.20;;
81996;SDS011;71500;50.806;8.774;2024-02-26T14:17:46;5.00;;;3.10;;
81996;SDS011;71500;50.806;8.774;2024-02-26T14:20:23;4.20;;;3.20;;
81996;SDS011;71500;50.806;8.774;2024-02-26T14:22:55;4.00;;;2.60;;
81996;SDS011;71500;50.806;8.774;2024-02-26T14:25:27;4.30;;;3.00;;
81996;SDS011;71500;50.806;8.774;2024-02-26T14:27:59;4.00;;;3.10;;
81996;SDS011;71500;50.806;8.774;2024-02-26T14:30:31;4.50;;;3.00;;
81996;SDS011;71500;50.806;8.774;2024-02-26T14:33:03;4.80;;;2.70;;
81996;SDS011;71500;50.806;8.774;2024-02-26T14:35:35;4.20;;;2.90;;
81996;SDS011;71500;50.806;8.774;2024-02-26T14:38:06;5.10;;;3.40;;
81996;SDS011;71500;50.806;8.774;2024-02-26T14:40:38;6.00;;;3.60;;
81996;SDS011;71500;50.806;8.774;2024-02-26T14:43:09;5.30;;;3.60;;
81996;SDS011;71500;50.806;8.774;2024-02-26T14:45:41;5.30;;;3.40;;
81996;SDS011;71500;50.806;8.774;2024-02-26T14:48:13;6.40;;;5.00;;
81996;SDS011;71500;50.806;8.774;2024-02-26T14:50:45;5.60;;;4.00;;
81996;SDS011;71500;50.806;8.774;2024-02-26T14:53:16;7.10;;;4.20;;
81996;SDS011;71500;50.806;8.774;2024-02-26T14:55:48;6.50;;;4.50;;
81996;SDS011;71500;50.806;8.774;2024-02-26T14:58:19;6.60;;;4.70;;
81996;SDS011;71500;50.806;8.774;2024-02-26T15:00:51;6.80;;;4.50;;
81996;SDS011;71500;50.806;8.774;2024-02-26T15:03:23;7.20;;;4.70;;
81996;SDS011;71500;50.806;8.774;2024-02-26T15:05:55;6.50;;;5.10;;
81996;SDS011;71500;50.806;8.774;2024-02-26T15:08:26;6.50;;;4.30;;
81996;SDS011;71500;50.806;8.774;2024-02-26T15:10:58;6.80;;;5.40;;
81996;SDS011;71500;50.806;8.774;2024-02-26T15:13:30;7.40;;;5.80;;
81996;SDS011;71500;50.806;8.774;2024-02-26T15:16:02;7.00;;;5.30;;
81996;SDS011;71500;50.806;8.774;2024-02-26T15:18:34;7.90;;;5.90;;
81996;SDS011;71500;50.806;8.774;2024-02-26T15:21:06;6.50;;;5.30;;
81996;SDS011;71500;50.806;8.774;2024-02-26T15:23:38;7.40;;;5.80;;
81996;SDS011;71500;50.806;8.774;2024-02-26T15:26:26;7.20;;;5.50;;
81996;SDS011;71500;50.806;8.774;2024-02-26T15:28:58;7.30;;;5.50;;
81996;SDS011;71500;50.806;8.774;2024-02-26T15:31:29;7.50;;;5.50;;
81996;SDS011;71500;50.806;8.774;2024-02-26T15:34:01;8.10;;;4.90;;